Time;durP1;ratioP1;P1;durP2;ratioP2;P2;SDS_P1;SDS_P2;PMS_P1;PMS_P2;Temp;Humidity;BMP_temperature;BMP_pressure;BME280_temperature;BME280_humidity;BME280_pressure;Samples;Min_cycle;Max_cycle;Signal;HPM_P1;HPM_P2
2021/05/09 00:02:23;;;;;;;5.27;4.77;;;10.70;99.90;;;;;;6135461;23;20653;-69
2021/05/09 00:04:48;;;;;;;5.63;5.13;;;10.80;99.90;;;;;;6132976;23;20965;-69
2021/05/09 00:07:14;;;;;;;5.13;4.63;;;10.90;99.90;;;;;;6135675;23;20692;-69
2021/05/09 00:09:40;;;;;;;4.67;4.27;;;10.90;99.90;;;;;;6132513;23;20158;-69
2021/05/09 00:12:08;;;;;;;4.97;4.57;;;10.90;99.90;;;;;;6139493;23;20537;-69
2021/05/09 00:14:34;;;;;;;5.50;5.10;;;10.90;99.90;;;;;;6137615;23;20647;-70
2021/05/09 00:16:59;;;;;;;4.97;4.57;;;10.80;99.90;;;;;;6134734;23;20666;-69
2021/05/09 00:19:25;;;;;;;5.23;4.73;;;10.90;99.90;;;;;;6137827;23;20158;-69
2021/05/09 00:21:50;;;;;;;5.20;4.80;;;10.90;99.90;;;;;;6138745;23;20162;-69
2021/05/09 00:24:16;;;;;;;5.97;5.37;;;10.90;99.90;;;;;;6130411;23;20615;-69
2021/05/09 00:26:41;;;;;;;4.57;4.23;;;10.90;99.90;;;;;;6151375;22;20214;-62
2021/05/09 00:29:07;;;;;;;5.53;5.00;;;10.90;99.90;;;;;;6267156;22;20247;-63
2021/05/09 00:31:32;;;;;;;5.60;5.07;;;10.80;99.90;;;;;;6294909;22;20366;-62
2021/05/09 00:33:58;;;;;;;6.17;4.73;;;10.90;99.90;;;;;;6298807;22;20646;-68
2021/05/09 00:36:26;;;;;;;5.20;4.60;;;11.00;99.90;;;;;;6272782;22;20228;-61
2021/05/09 00:38:54;;;;;;;5.33;4.83;;;10.90;99.90;;;;;;6264299;22;20165;-63
2021/05/09 00:41:20;;;;;;;5.17;4.70;;;10.90;99.90;;;;;;6266570;22;20870;-63
2021/05/09 00:43:46;;;;;;;5.20;4.70;;;11.00;99.90;;;;;;6263765;22;20632;-61
2021/05/09 00:46:14;;;;;;;5.13;4.73;;;11.00;99.90;;;;;;6262185;22;20186;-62
2021/05/09 00:48:40;;;;;;;5.40;4.90;;;11.00;99.90;;;;;;6262711;22;20583;-62
2021/05/09 00:51:05;;;;;;;4.90;4.50;;;11.00;99.90;;;;;;6261497;22;20550;-63
2021/05/09 00:53:34;;;;;;;4.57;4.20;;;11.10;99.90;;;;;;6263633;22;20585;-63
2021/05/09 00:56:01;;;;;;;4.80;4.40;;;11.10;99.90;;;;;;6259222;22;20647;-63
2021/05/09 00:58:29;;;;;;;5.43;4.93;;;11.10;99.90;;;;;;6259151;22;20530;-63
2021/05/09 01:00:55;;;;;;;6.57;4.73;;;11.10;99.90;;;;;;6243148;22;20643;-63
2021/05/09 01:03:27;;;;;;;5.27;4.87;;;11.10;99.90;;;;;;6232454;22;20677;-61
2021/05/09 01:05:55;;;;;;;5.03;4.53;;;11.10;99.90;;;;;;6267140;22;20701;-63
2021/05/09 01:08:22;;;;;;;5.00;4.60;;;11.10;99.90;;;;;;6259258;22;20546;-63
2021/05/09 01:10:49;;;;;;;6.90;4.60;;;11.20;99.90;;;;;;6257876;22;20562;-61
2021/05/09 01:13:15;;;;;;;5.13;4.73;;;11.20;99.90;;;;;;6259651;22;20635;-62
2021/05/09 01:15:43;;;;;;;5.17;4.67;;;11.20;99.90;;;;;;6257288;22;20950;-63
2021/05/09 01:18:10;;;;;;;4.97;4.57;;;11.10;99.90;;;;;;6263421;22;20553;-63
2021/05/09 01:20:37;;;;;;;4.73;4.33;;;11.20;99.90;;;;;;6265274;22;20607;-63
2021/05/09 01:23:03;;;;;;;4.63;4.33;;;11.20;99.90;;;;;;6263201;22;20560;-62
2021/05/09 01:25:29;;;;;;;5.57;5.03;;;11.20;99.90;;;;;;6263411;22;20683;-62
2021/05/09 01:27:56;;;;;;;5.67;4.73;;;11.20;99.90;;;;;;6235449;22;20581;-63
2021/05/09 01:30:25;;;;;;;4.67;4.37;;;11.20;99.90;;;;;;6265832;22;20232;-63
2021/05/09 01:32:53;;;;;;;4.43;4.13;;;11.30;99.90;;;;;;6263482;22;20961;-63
2021/05/09 01:35:19;;;;;;;5.07;4.57;;;11.30;99.90;;;;;;6264369;22;21165;-63
2021/05/09 01:37:44;;;;;;;5.10;4.60;;;11.30;99.90;;;;;;6262548;22;20537;-63
2021/05/09 01:40:13;;;;;;;4.90;4.50;;;11.30;99.90;;;;;;6262351;22;20588;-63
2021/05/09 01:42:40;;;;;;;5.60;5.10;;;11.20;99.90;;;;;;6232257;22;20313;-61
2021/05/09 01:45:07;;;;;;;4.93;4.53;;;11.30;99.90;;;;;;6257846;22;21208;-62
2021/05/09 01:47:33;;;;;;;5.03;4.63;;;11.30;99.90;;;;;;6255898;22;20612;-63
2021/05/09 01:49:58;;;;;;;5.83;4.77;;;11.30;99.90;;;;;;6261995;22;20534;-63
2021/05/09 01:52:24;;;;;;;5.60;5.10;;;11.40;99.90;;;;;;6261721;22;20230;-63
2021/05/09 01:54:52;;;;;;;4.87;4.40;;;11.40;99.90;;;;;;6260058;22;20209;-63
2021/05/09 01:57:17;;;;;;;5.03;4.63;;;11.40;99.90;;;;;;6262349;22;20664;-63
2021/05/09 01:59:44;;;;;;;5.10;4.70;;;11.40;99.90;;;;;;6261627;22;20815;-61
2021/05/09 02:02:10;;;;;;;5.00;4.60;;;11.40;99.90;;;;;;6275959;22;20155;-63
2021/05/09 02:04:35;;;;;;;4.83;4.37;;;11.40;99.90;;;;;;6268146;22;20615;-64
2021/05/09 02:07:01;;;;;;;4.57;4.27;;;11.50;99.90;;;;;;6264584;22;20175;-65
2021/05/09 02:09:26;;;;;;;5.10;4.67;;;11.40;99.90;;;;;;6261992;22;20159;-66
2021/05/09 02:11:52;;;;;;;4.67;4.30;;;11.50;99.90;;;;;;6262946;22;20165;-65
2021/05/09 02:14:17;;;;;;;4.53;4.13;;;11.50;99.90;;;;;;6259520;22;20191;-67
2021/05/09 02:16:43;;;;;;;5.17;4.77;;;11.60;99.90;;;;;;6265687;22;20633;-64
2021/05/09 02:19:11;;;;;;;4.50;4.13;;;11.60;99.90;;;;;;6264281;22;20270;-65
2021/05/09 02:21:37;;;;;;;4.17;3.87;;;11.60;99.90;;;;;;6258870;22;20159;-67
2021/05/09 02:24:02;;;;;;;4.70;4.40;;;11.60;99.90;;;;;;6263009;22;20603;-67
2021/05/09 02:26:28;;;;;;;4.50;4.10;;;11.60;99.90;;;;;;6263129;22;20516;-66
2021/05/09 02:28:53;;;;;;;4.63;4.23;;;11.60;99.90;;;;;;6257761;22;20162;-62
2021/05/09 02:31:22;;;;;;;4.37;4.07;;;11.60;99.90;;;;;;6260878;22;20979;-63
2021/05/09 02:33:47;;;;;;;5.30;4.63;;;11.70;99.90;;;;;;6261593;22;20217;-63
2021/05/09 02:36:15;;;;;;;4.47;4.17;;;11.70;99.90;;;;;;6236032;22;20590;-63
2021/05/09 02:38:41;;;;;;;4.73;4.40;;;11.70;99.90;;;;;;6263206;22;20212;-63
2021/05/09 02:41:06;;;;;;;5.43;4.93;;;11.80;99.90;;;;;;6262490;22;20620;-63
2021/05/09 02:43:32;;;;;;;5.37;4.63;;;11.70;99.90;;;;;;6263364;22;20245;-62
2021/05/09 02:45:58;;;;;;;5.13;4.63;;;11.80;99.90;;;;;;6285098;22;20597;-64
2021/05/09 02:48:23;;;;;;;4.63;4.23;;;11.70;99.90;;;;;;6266610;22;20182;-63
2021/05/09 02:50:49;;;;;;;4.50;4.17;;;11.80;99.90;;;;;;6241107;22;20565;-63
2021/05/09 02:53:15;;;;;;;4.70;4.40;;;11.80;99.90;;;;;;6265454;22;20930;-62
2021/05/09 02:55:43;;;;;;;5.03;4.63;;;11.80;99.90;;;;;;6267392;22;20177;-61
2021/05/09 02:58:08;;;;;;;4.23;3.90;;;11.70;99.90;;;;;;6269739;22;20162;-62
2021/05/09 03:00:34;;;;;;;4.70;4.40;;;11.80;99.90;;;;;;6265105;22;20534;-61
2021/05/09 03:02:59;;;;;;;4.83;4.43;;;11.80;99.90;;;;;;6258727;22;20155;-62
2021/05/09 03:05:25;;;;;;;4.43;4.10;;;11.80;99.90;;;;;;6260399;22;20158;-62
2021/05/09 03:07:50;;;;;;;4.10;3.77;;;11.80;99.90;;;;;;6264597;22;20190;-63
2021/05/09 03:10:16;;;;;;;4.83;4.43;;;11.80;99.90;;;;;;6239608;22;20166;-63
2021/05/09 03:12:41;;;;;;;4.87;4.40;;;11.80;99.90;;;;;;6260249;22;20543;-63
2021/05/09 03:15:07;;;;;;;4.10;3.80;;;11.90;99.90;;;;;;6263420;22;20209;-63
2021/05/09 03:17:33;;;;;;;4.80;4.40;;;11.90;99.90;;;;;;6267513;22;20593;-63
2021/05/09 03:20:02;;;;;;;4.47;4.07;;;11.90;99.90;;;;;;6266254;22;20544;-63
2021/05/09 03:22:28;;;;;;;4.37;3.97;;;12.00;99.90;;;;;;6264713;22;20151;-63
2021/05/09 03:24:53;;;;;;;4.10;3.80;;;12.00;99.90;;;;;;6267080;22;21047;-62
2021/05/09 03:27:19;;;;;;;4.60;4.20;;;12.00;99.90;;;;;;6264639;22;20210;-61
2021/05/09 03:29:45;;;;;;;4.30;4.00;;;11.90;99.90;;;;;;6263215;22;20190;-63
2021/05/09 03:32:10;;;;;;;4.37;4.07;;;12.00;99.90;;;;;;6264687;22;20228;-65
2021/05/09 03:34:36;;;;;;;4.20;3.90;;;12.00;99.90;;;;;;6260200;22;20209;-68
2021/05/09 03:37:01;;;;;;;3.90;3.60;;;12.00;99.90;;;;;;6266462;22;20509;-65
2021/05/09 03:39:27;;;;;;;4.07;3.77;;;12.00;99.90;;;;;;6259250;22;20627;-65
2021/05/09 03:41:52;;;;;;;4.10;3.80;;;12.10;99.90;;;;;;6260516;22;20432;-69
2021/05/09 03:44:18;;;;;;;4.10;3.80;;;12.10;99.90;;;;;;6248613;22;20551;-68
2021/05/09 03:46:43;;;;;;;3.87;3.60;;;12.00;99.90;;;;;;6281451;22;20179;-66
2021/05/09 03:49:09;;;;;;;4.37;4.07;;;12.10;99.90;;;;;;6274909;22;20547;-67
2021/05/09 03:51:37;;;;;;;3.87;3.67;;;12.10;99.90;;;;;;6260526;22;20464;-65
2021/05/09 03:54:03;;;;;;;4.47;4.17;;;12.10;99.90;;;;;;6261597;22;20206;-64
2021/05/09 03:56:29;;;;;;;4.90;4.50;;;12.20;99.90;;;;;;6258647;22;20670;-65
2021/05/09 03:58:54;;;;;;;6.60;4.00;;;12.20;99.90;;;;;;6267584;22;20155;-68
2021/05/09 04:01:20;;;;;;;4.43;4.13;;;12.20;99.90;;;;;;6242640;22;20246;-65
2021/05/09 04:03:45;;;;;;;4.30;4.00;;;12.20;99.90;;;;;;6262519;22;20205;-65
2021/05/09 04:06:11;;;;;;;4.50;4.10;;;12.20;99.90;;;;;;6237210;22;20183;-66
2021/05/09 04:08:36;;;;;;;4.17;3.83;;;12.30;99.90;;;;;;6239409;22;20159;-65
2021/05/09 04:11:02;;;;;;;4.30;4.00;;;12.30;99.90;;;;;;6261543;22;20147;-61
2021/05/09 04:13:28;;;;;;;4.30;3.90;;;12.40;99.90;;;;;;6267307;22;20198;-62
2021/05/09 04:15:54;;;;;;;4.10;3.80;;;12.40;99.90;;;;;;6270239;22;20867;-63
2021/05/09 04:18:20;;;;;;;3.70;3.40;;;12.40;99.90;;;;;;6234152;22;20295;-62
2021/05/09 04:20:48;;;;;;;3.77;3.47;;;12.50;99.90;;;;;;6235094;22;20609;-63
2021/05/09 04:23:16;;;;;;;3.90;3.60;;;12.50;99.90;;;;;;6263303;22;21173;-63
2021/05/09 04:25:50;;;;;;;3.90;3.60;;;12.60;99.90;;;;;;6264664;22;20967;-63
2021/05/09 04:28:16;;;;;;;4.40;4.00;;;12.60;99.90;;;;;;6268754;22;21095;-63
2021/05/09 04:30:41;;;;;;;3.63;3.33;;;12.60;99.90;;;;;;6264742;22;20652;-62
2021/05/09 04:33:09;;;;;;;4.30;4.00;;;12.60;99.90;;;;;;6262157;22;20163;-64
2021/05/09 04:35:36;;;;;;;4.17;3.87;;;12.60;99.90;;;;;;6258561;22;20207;-63
2021/05/09 04:38:04;;;;;;;3.97;3.67;;;12.70;99.90;;;;;;6264471;22;20914;-65
2021/05/09 04:40:35;;;;;;;3.97;3.57;;;12.70;99.90;;;;;;6262650;22;20545;-62
2021/05/09 04:43:09;;;;;;;3.97;3.60;;;12.80;99.90;;;;;;6264716;22;20632;-62
2021/05/09 04:45:38;;;;;;;4.03;3.60;;;12.80;99.90;;;;;;6273333;22;20588;-61
2021/05/09 04:48:04;;;;;;;3.20;2.90;;;12.80;99.90;;;;;;6265724;22;20851;-62
2021/05/09 04:50:31;;;;;;;4.10;3.80;;;12.90;99.90;;;;;;6257964;22;20608;-62
2021/05/09 04:52:59;;;;;;;4.43;4.03;;;12.90;99.90;;;;;;6255893;22;20607;-62
2021/05/09 04:55:24;;;;;;;4.23;3.70;;;13.00;99.90;;;;;;6256890;22;20530;-63
2021/05/09 04:57:50;;;;;;;6.20;3.50;;;13.00;99.90;;;;;;6256914;22;20586;-63
2021/05/09 05:00:16;;;;;;;3.30;3.10;;;13.10;99.90;;;;;;6259691;22;20174;-62
2021/05/09 05:02:45;;;;;;;3.57;3.27;;;13.20;99.90;;;;;;6254528;22;20540;-62
2021/05/09 05:05:12;;;;;;;3.93;3.60;;;13.20;99.90;;;;;;6258189;22;20601;-63
2021/05/09 05:07:38;;;;;;;4.53;4.13;;;13.20;99.90;;;;;;6257705;22;21150;-62
2021/05/09 05:10:05;;;;;;;3.30;3.00;;;13.20;99.90;;;;;;6255949;22;20629;-63
2021/05/09 05:12:33;;;;;;;3.70;3.40;;;13.20;99.90;;;;;;6230217;22;20165;-63
2021/05/09 05:14:59;;;;;;;3.70;3.40;;;13.30;99.90;;;;;;6258675;22;20590;-63
2021/05/09 05:17:24;;;;;;;4.33;4.00;;;13.30;99.90;;;;;;6257573;22;20619;-61
2021/05/09 05:19:50;;;;;;;3.63;3.40;;;13.40;99.90;;;;;;6261320;22;20548;-63
2021/05/09 05:22:16;;;;;;;3.70;3.37;;;13.40;99.90;;;;;;6262179;22;20163;-62
2021/05/09 05:24:41;;;;;;;3.40;3.10;;;13.40;99.90;;;;;;6231348;22;20515;-63
2021/05/09 05:27:09;;;;;;;4.00;3.03;;;13.50;99.90;;;;;;6260693;22;20655;-62
2021/05/09 05:29:35;;;;;;;3.60;3.30;;;13.50;99.90;;;;;;6263307;22;20152;-62
2021/05/09 05:32:00;;;;;;;3.23;3.03;;;13.60;99.90;;;;;;6279288;22;20564;-62
2021/05/09 05:34:26;;;;;;;3.87;3.57;;;13.70;99.90;;;;;;6280725;22;20194;-61
2021/05/09 05:36:51;;;;;;;4.90;3.93;;;13.70;99.90;;;;;;6278535;22;20197;-63
2021/05/09 05:39:18;;;;;;;3.60;3.30;;;13.70;99.90;;;;;;6247612;22;20574;-63
2021/05/09 05:41:44;;;;;;;3.47;3.07;;;13.80;99.90;;;;;;6271292;22;20216;-63
2021/05/09 05:44:09;;;;;;;3.20;3.00;;;13.90;99.90;;;;;;6265582;22;20593;-63
2021/05/09 05:46:35;;;;;;;4.73;4.43;;;13.90;99.90;;;;;;6268277;22;20186;-62
2021/05/09 05:49:01;;;;;;;4.90;2.93;;;14.00;99.90;;;;;;6266785;22;20161;-63
2021/05/09 05:51:26;;;;;;;3.60;3.30;;;14.10;99.90;;;;;;6267857;22;20186;-63
2021/05/09 05:53:56;;;;;;;3.03;2.80;;;14.10;99.90;;;;;;6266193;22;20191;-62
2021/05/09 05:56:26;;;;;;;3.40;3.10;;;14.20;99.90;;;;;;6268013;22;20234;-63
2021/05/09 05:58:52;;;;;;;4.10;3.43;;;14.30;99.90;;;;;;6269870;22;20541;-63
2021/05/09 06:01:18;;;;;;;3.10;2.90;;;14.40;99.90;;;;;;6268122;22;20537;-63
2021/05/09 06:03:44;;;;;;;3.40;3.03;;;14.40;99.90;;;;;;6258984;22;21544;-61
2021/05/09 06:06:12;;;;;;;3.27;3.00;;;14.40;99.90;;;;;;6256097;22;20717;-62
2021/05/09 06:08:39;;;;;;;3.27;3.07;;;14.50;99.90;;;;;;6268997;22;20147;-63
2021/05/09 06:11:05;;;;;;;3.37;3.00;;;14.60;99.90;;;;;;6271761;22;20880;-63
2021/05/09 06:13:31;;;;;;;3.40;3.00;;;14.70;99.90;;;;;;6241676;22;20585;-63
2021/05/09 06:15:56;;;;;;;3.33;2.93;;;14.80;99.90;;;;;;6243241;22;20652;-63
2021/05/09 06:18:22;;;;;;;3.50;3.23;;;14.80;99.90;;;;;;6271347;22;20166;-62
2021/05/09 06:20:48;;;;;;;3.10;2.90;;;14.90;99.90;;;;;;6274354;22;20183;-64
2021/05/09 06:23:20;;;;;;;3.23;2.93;;;14.90;99.90;;;;;;6264803;22;20225;-64
2021/05/09 06:25:48;;;;;;;3.50;3.20;;;15.00;99.90;;;;;;6270529;22;21180;-63
2021/05/09 06:28:17;;;;;;;3.37;3.00;;;15.10;99.90;;;;;;6269771;22;20646;-62
2021/05/09 06:30:43;;;;;;;3.73;3.43;;;15.20;99.90;;;;;;6239782;22;20545;-63
2021/05/09 06:33:10;;;;;;;3.37;2.83;;;15.30;99.90;;;;;;6268581;22;20602;-64
2021/05/09 06:35:38;;;;;;;2.87;2.67;;;15.30;99.90;;;;;;6268196;22;20559;-63
2021/05/09 06:38:04;;;;;;;3.47;2.80;;;15.40;99.90;;;;;;6264818;22;20548;-65
2021/05/09 06:40:30;;;;;;;3.33;3.03;;;15.40;99.90;;;;;;6270797;22;21066;-62
2021/05/09 06:43:03;;;;;;;2.80;2.53;;;15.50;99.90;;;;;;6270223;22;20521;-63
2021/05/09 06:45:31;;;;;;;3.00;2.80;;;15.60;99.90;;;;;;6273912;22;20163;-61
2021/05/09 06:47:59;;;;;;;3.10;2.80;;;15.70;99.90;;;;;;6239482;22;20605;-63
2021/05/09 06:50:26;;;;;;;3.33;3.13;;;15.70;99.90;;;;;;6243820;22;20546;-63
2021/05/09 06:52:52;;;;;;;3.03;2.83;;;15.80;99.90;;;;;;6282762;22;20534;-63
2021/05/09 06:55:18;;;;;;;3.40;3.00;;;15.90;99.90;;;;;;6253097;22;20600;-63
2021/05/09 06:57:46;;;;;;;2.80;2.60;;;16.00;99.90;;;;;;6284051;22;20208;-63
2021/05/09 07:00:14;;;;;;;3.47;3.23;;;16.10;99.90;;;;;;6275105;22;20544;-62
2021/05/09 07:02:40;;;;;;;3.47;3.20;;;16.20;99.90;;;;;;6278047;22;20537;-62
2021/05/09 07:05:06;;;;;;;4.97;3.80;;;16.30;99.90;;;;;;6273522;22;20595;-62
2021/05/09 07:07:31;;;;;;;5.30;4.90;;;16.40;99.90;;;;;;6269957;22;20601;-63
2021/05/09 07:09:57;;;;;;;7.20;5.07;;;16.50;99.90;;;;;;6264469;22;20163;-64
2021/05/09 07:12:25;;;;;;;4.03;3.63;;;16.70;99.90;;;;;;6238430;22;20155;-64
2021/05/09 07:14:50;;;;;;;2.87;2.67;;;16.80;99.90;;;;;;6269114;22;20541;-63
2021/05/09 07:17:16;;;;;;;2.90;2.70;;;16.90;99.90;;;;;;6274258;22;20592;-63
2021/05/09 07:19:45;;;;;;;2.93;2.50;;;16.90;99.90;;;;;;6262622;22;20616;-64
2021/05/09 07:22:14;;;;;;;2.87;2.67;;;17.00;99.90;;;;;;6270462;22;20560;-63
2021/05/09 07:24:44;;;;;;;3.07;2.77;;;17.10;99.90;;;;;;6267201;22;20941;-63
2021/05/09 07:27:10;;;;;;;3.63;2.90;;;17.10;99.90;;;;;;6268284;22;20621;-64
2021/05/09 07:29:35;;;;;;;2.97;2.77;;;17.20;99.90;;;;;;6241332;22;20897;-63
2021/05/09 07:32:04;;;;;;;3.10;2.90;;;17.30;99.90;;;;;;6265098;22;20161;-63
2021/05/09 07:34:29;;;;;;;2.80;2.60;;;17.30;99.90;;;;;;6264943;22;20619;-64
2021/05/09 07:36:55;;;;;;;3.00;2.80;;;17.30;99.90;;;;;;6267740;22;20636;-63
2021/05/09 07:39:20;;;;;;;2.83;2.57;;;17.40;99.90;;;;;;6268607;22;20537;-64
2021/05/09 07:41:46;;;;;;;3.13;2.30;;;17.60;99.90;;;;;;6266422;22;20155;-63
2021/05/09 07:44:11;;;;;;;2.60;2.40;;;17.70;99.90;;;;;;6266946;22;20229;-62
2021/05/09 07:46:39;;;;;;;2.87;2.63;;;17.80;99.90;;;;;;6266301;22;20186;-63
2021/05/09 07:49:05;;;;;;;3.40;2.80;;;17.90;99.90;;;;;;6237716;22;20224;-64
2021/05/09 07:51:30;;;;;;;3.03;2.57;;;18.00;99.90;;;;;;6265066;22;21062;-64
2021/05/09 07:53:56;;;;;;;2.57;2.37;;;18.10;99.90;;;;;;6268364;22;20780;-63
2021/05/09 07:56:22;;;;;;;3.20;2.50;;;18.20;99.90;;;;;;6269429;22;20659;-64
2021/05/09 07:58:47;;;;;;;3.13;2.93;;;18.30;99.90;;;;;;6271652;22;20209;-64
2021/05/09 08:01:13;;;;;;;2.67;2.47;;;18.40;99.90;;;;;;6263731;22;20501;-64
2021/05/09 08:03:38;;;;;;;2.83;2.63;;;18.50;99.90;;;;;;6237821;22;20195;-65
2021/05/09 08:06:04;;;;;;;4.57;2.60;;;18.60;99.90;;;;;;6267270;22;20648;-66
2021/05/09 08:08:31;;;;;;;3.43;2.67;;;18.60;99.90;;;;;;6269267;22;20159;-67
2021/05/09 08:10:57;;;;;;;3.13;2.93;;;18.70;99.90;;;;;;6271549;22;20561;-66
2021/05/09 08:13:23;;;;;;;3.70;2.50;;;18.80;99.90;;;;;;6265303;22;20577;-66
2021/05/09 08:15:51;;;;;;;2.67;2.47;;;18.90;99.90;;;;;;6237554;22;20266;-65
2021/05/09 08:18:24;;;;;;;2.80;2.57;;;18.90;99.90;;;;;;6267000;22;20217;-66
2021/05/09 08:20:50;;;;;;;3.03;2.73;;;19.00;99.90;;;;;;6270390;22;20876;-66
2021/05/09 08:23:16;;;;;;;2.90;2.50;;;19.10;99.90;;;;;;6242140;22;20582;-66
2021/05/09 08:25:41;;;;;;;2.73;2.53;;;19.10;99.90;;;;;;6238448;22;20921;-66
2021/05/09 08:28:07;;;;;;;2.80;2.60;;;19.20;99.90;;;;;;6240244;22;20912;-68
2021/05/09 08:30:32;;;;;;;4.10;2.70;;;19.20;99.90;;;;;;6270146;22;20161;-66
2021/05/09 08:32:58;;;;;;;3.27;2.50;;;19.30;99.90;;;;;;6262681;22;20155;-66
2021/05/09 08:35:24;;;;;;;2.90;2.50;;;19.40;99.90;;;;;;6269153;22;20266;-66
2021/05/09 08:37:50;;;;;;;2.50;2.30;;;19.50;99.90;;;;;;6265404;22;20949;-67
2021/05/09 08:40:17;;;;;;;4.90;2.77;;;19.60;99.90;;;;;;6265484;22;20151;-67
2021/05/09 08:42:46;;;;;;;3.03;2.73;;;19.50;99.90;;;;;;6266271;22;20534;-65
2021/05/09 08:45:12;;;;;;;3.33;2.80;;;19.80;99.90;;;;;;6267492;22;20828;-68
2021/05/09 08:47:42;;;;;;;2.80;2.60;;;19.90;99.90;;;;;;6264841;22;20601;-66
2021/05/09 08:50:22;;;;;;;3.00;2.80;;;20.00;99.90;;;;;;6242813;22;20572;-67
2021/05/09 08:52:49;;;;;;;3.10;2.80;;;20.10;99.90;;;;;;6242522;22;20920;-68
2021/05/09 08:55:17;;;;;;;4.37;2.80;;;20.20;99.90;;;;;;6267310;22;20623;-67
2021/05/09 08:57:44;;;;;;;2.77;2.57;;;20.20;99.90;;;;;;6241239;22;20568;-66
2021/05/09 09:00:11;;;;;;;3.87;2.67;;;20.30;99.90;;;;;;6241865;22;21093;-68
2021/05/09 09:02:42;;;;;;;5.20;2.67;;;20.40;99.90;;;;;;6268310;22;20554;-67
2021/05/09 09:05:09;;;;;;;2.80;2.60;;;20.40;99.90;;;;;;6268280;22;20598;-67
2021/05/09 09:07:51;;;;;;;2.93;2.60;;;20.50;99.90;;;;;;6266087;22;20647;-66
2021/05/09 09:10:35;;;;;;;2.70;2.50;;;20.60;99.90;;;;;;6264765;22;20607;-67
2021/05/09 09:13:03;;;;;;;4.60;3.03;;;20.70;99.90;;;;;;6216565;22;21062;-66
2021/05/09 09:16:04;;;;;;;2.50;2.40;;;20.80;99.90;;;;;;6266620;22;20970;-67
2021/05/09 09:18:33;;;;;;;2.63;2.43;;;20.80;99.90;;;;;;6224092;22;20914;-67
2021/05/09 09:21:27;;;;;;;3.40;2.97;;;21.00;99.90;;;;;;6268110;22;20641;-66
2021/05/09 09:23:55;;;;;;;4.43;3.37;;;21.10;99.90;;;;;;6265090;22;21154;-66
2021/05/09 09:26:39;;;;;;;2.77;2.60;;;21.10;99.90;;;;;;6262714;22;20613;-66
2021/05/09 09:29:21;;;;;;;2.90;2.70;;;21.20;99.90;;;;;;6268278;22;20513;-68
2021/05/09 09:31:54;;;;;;;2.50;2.30;;;21.20;99.90;;;;;;6264080;22;20907;-67
2021/05/09 09:34:22;;;;;;;2.73;2.53;;;21.30;99.90;;;;;;6237975;22;20802;-66
2021/05/09 09:36:47;;;;;;;2.53;2.40;;;21.50;99.90;;;;;;6242974;22;20680;-66
2021/05/09 09:39:13;;;;;;;2.40;2.20;;;21.50;99.90;;;;;;6262921;22;20956;-67
2021/05/09 09:41:51;;;;;;;2.40;2.20;;;21.50;99.90;;;;;;6262923;22;20194;-67
2021/05/09 09:44:19;;;;;;;2.80;2.53;;;21.60;99.90;;;;;;6240755;22;20202;-68
2021/05/09 09:46:51;;;;;;;2.40;2.20;;;21.60;99.90;;;;;;6263310;22;20604;-69
2021/05/09 09:49:24;;;;;;;2.43;2.23;;;21.60;99.90;;;;;;6265081;22;20550;-66
2021/05/09 09:51:57;;;;;;;4.03;2.57;;;21.70;99.90;;;;;;6241854;22;21089;-67
2021/05/09 09:54:44;;;;;;;2.80;2.50;;;21.80;99.90;;;;;;6268441;22;20676;-67
2021/05/09 09:57:24;;;;;;;2.67;2.47;;;21.80;99.90;;;;;;6266161;22;20644;-68
2021/05/09 10:00:07;;;;;;;2.50;2.30;;;21.80;99.90;;;;;;6264558;22;20730;-66
2021/05/09 10:02:33;;;;;;;3.30;2.47;;;21.90;99.90;;;;;;6240566;22;20553;-67
2021/05/09 10:04:59;;;;;;;2.40;2.20;;;21.90;99.90;;;;;;6241810;22;20589;-66
2021/05/09 10:07:27;;;;;;;3.90;2.87;;;22.00;99.90;;;;;;6268247;22;20676;-68
2021/05/09 10:09:55;;;;;;;7.60;2.40;;;22.20;99.90;;;;;;6267113;22;21142;-66
2021/05/09 10:12:21;;;;;;;3.07;2.60;;;22.20;99.90;;;;;;6266944;22;21087;-68
2021/05/09 10:14:48;;;;;;;2.67;2.43;;;22.20;99.90;;;;;;6270456;22;20593;-65
2021/05/09 10:17:16;;;;;;;4.20;2.50;;;22.20;99.90;;;;;;6238202;22;20564;-68
2021/05/09 10:19:45;;;;;;;2.20;2.00;;;22.40;99.90;;;;;;6265451;22;20564;-66
2021/05/09 10:22:24;;;;;;;3.10;2.60;;;22.50;99.90;;;;;;6238866;22;20562;-66
2021/05/09 10:24:49;;;;;;;2.50;2.30;;;22.60;99.90;;;;;;6267654;22;20635;-66
2021/05/09 10:27:17;;;;;;;2.53;2.33;;;22.70;99.90;;;;;;6261958;22;20896;-67
2021/05/09 10:29:46;;;;;;;2.50;2.30;;;22.80;99.90;;;;;;6239246;22;20601;-66
2021/05/09 10:32:20;;;;;;;3.37;2.27;;;22.90;99.90;;;;;;6269245;22;20522;-66
2021/05/09 10:34:53;;;;;;;3.70;3.00;;;23.00;99.90;;;;;;6264365;22;20607;-67
2021/05/09 10:37:44;;;;;;;2.27;2.13;;;23.10;99.90;;;;;;6266462;22;20573;-67
2021/05/09 10:40:27;;;;;;;2.50;2.30;;;23.10;99.90;;;;;;6264729;22;21087;-69
2021/05/09 10:43:05;;;;;;;2.73;2.10;;;23.20;99.90;;;;;;6265492;22;20496;-66
2021/05/09 10:45:35;;;;;;;3.43;2.93;;;23.10;99.90;;;;;;6267140;22;20564;-66
2021/05/09 10:48:13;;;;;;;2.77;2.57;;;23.20;99.90;;;;;;6268790;22;20605;-66
2021/05/09 10:50:43;;;;;;;2.90;2.17;;;23.30;99.90;;;;;;6266765;22;20565;-67
2021/05/09 10:53:09;;;;;;;2.53;2.33;;;23.40;99.90;;;;;;6265429;22;20542;-67
2021/05/09 10:55:35;;;;;;;3.57;2.53;;;23.50;99.90;;;;;;6265609;22;20597;-66
2021/05/09 10:58:22;;;;;;;2.37;2.17;;;23.70;99.90;;;;;;6269075;22;20591;-67
2021/05/09 11:00:57;;;;;;;2.07;1.93;;;23.70;99.90;;;;;;6230199;22;20205;-66
2021/05/09 11:03:34;;;;;;;2.70;2.50;;;23.80;99.90;;;;;;6267376;22;20627;-66
2021/05/09 11:06:10;;;;;;;4.50;2.23;;;23.90;99.90;;;;;;6267668;22;21106;-68
2021/05/09 11:08:45;;;;;;;2.20;1.93;;;24.00;99.90;;;;;;6269688;22;20881;-68
2021/05/09 11:11:26;;;;;;;2.20;2.10;;;24.10;99.90;;;;;;6267216;22;20585;-69
2021/05/09 11:16:37;;;;;;;2.97;2.27;;;24.20;99.90;;;;;;6265026;22;20827;-69
2021/05/09 11:19:13;;;;;;;2.20;1.90;;;24.30;99.90;;;;;;6269007;22;21078;-67
2021/05/09 11:21:46;;;;;;;2.00;1.90;;;24.40;99.90;;;;;;6268678;22;20498;-68
2021/05/09 11:24:32;;;;;;;2.30;2.07;;;24.60;99.90;;;;;;6264532;22;20676;-68
2021/05/09 11:27:08;;;;;;;2.40;2.00;;;24.70;99.90;;;;;;6237627;22;20747;-68
2021/05/09 11:29:34;;;;;;;2.03;1.93;;;24.80;99.90;;;;;;6266462;22;20497;-69
2021/05/09 11:32:08;;;;;;;2.20;2.00;;;24.90;99.90;;;;;;6264896;22;20560;-69
2021/05/09 11:34:35;;;;;;;2.30;2.10;;;24.90;99.90;;;;;;6269158;22;20611;-68
2021/05/09 11:37:01;;;;;;;1.90;1.80;;;24.90;99.90;;;;;;6268503;22;20651;-69
2021/05/09 11:39:30;;;;;;;2.40;2.20;;;25.00;99.90;;;;;;6261496;22;20576;-68
2021/05/09 11:41:57;;;;;;;2.00;1.90;;;25.20;99.90;;;;;;6262764;22;20903;-65
2021/05/09 11:44:35;;;;;;;2.40;2.20;;;25.30;99.90;;;;;;6268048;22;20975;-66
2021/05/09 11:47:05;;;;;;;2.43;1.97;;;25.50;99.90;;;;;;6266377;22;20661;-67
2021/05/09 11:49:32;;;;;;;2.07;1.90;;;25.50;99.90;;;;;;6264225;22;20857;-66
2021/05/09 11:51:57;;;;;;;2.80;2.00;;;25.70;99.90;;;;;;6265862;22;20554;-66
2021/05/09 11:54:25;;;;;;;2.43;2.00;;;25.90;99.90;;;;;;6264926;22;20593;-66
2021/05/09 11:57:21;;;;;;;2.20;2.00;;;26.00;99.90;;;;;;6265730;22;20177;-66
2021/05/09 11:59:51;;;;;;;2.20;2.00;;;26.20;99.90;;;;;;6254482;22;20670;-66
2021/05/09 12:02:16;;;;;;;3.33;2.10;;;26.20;99.90;;;;;;6263595;22;20537;-66
2021/05/09 12:05:00;;;;;;;2.53;2.00;;;26.30;99.90;;;;;;6268652;22;21005;-66
2021/05/09 12:07:28;;;;;;;3.33;2.23;;;26.50;99.90;;;;;;6268479;22;20179;-66
2021/05/09 12:10:00;;;;;;;2.43;2.23;;;26.60;99.90;;;;;;6242087;22;20984;-66
2021/05/09 12:12:31;;;;;;;3.20;2.90;;;26.70;99.90;;;;;;6260915;22;20490;-67
2021/05/09 12:15:06;;;;;;;4.27;3.87;;;26.80;99.90;;;;;;6263480;22;20585;-66
2021/05/09 12:17:32;;;;;;;2.63;2.43;;;26.90;99.90;;;;;;6264861;22;20672;-68
2021/05/09 12:20:00;;;;;;;2.37;2.20;;;27.00;99.90;;;;;;6268535;22;20683;-66
2021/05/09 12:22:37;;;;;;;2.13;2.00;;;27.20;99.90;;;;;;6264024;22;20576;-66
2021/05/09 12:25:03;;;;;;;4.93;2.70;;;27.40;99.90;;;;;;6265702;22;20588;-67
2021/05/09 12:27:29;;;;;;;2.07;1.97;;;27.50;99.90;;;;;;6235965;22;20665;-89
2021/05/09 12:29:56;;;;;;;2.33;2.23;;;27.60;99.90;;;;;;6201936;22;20158;-86
2021/05/09 12:32:30;;;;;;;3.63;2.10;;;27.80;99.90;;;;;;6188089;23;20618;-87
2021/05/09 12:35:10;;;;;;;2.70;2.50;;;27.90;99.90;;;;;;6180561;23;20584;-85
2021/05/09 12:37:41;;;;;;;2.03;1.87;;;28.10;99.90;;;;;;6195602;23;20583;-84
2021/05/09 12:40:23;;;;;;;2.23;1.80;;;28.20;99.90;;;;;;6175256;23;20636;-71
2021/05/09 12:43:08;;;;;;;2.20;2.00;;;28.30;99.90;;;;;;6172286;23;20745;-71
2021/05/09 12:45:45;;;;;;;1.83;1.73;;;28.50;99.70;;;;;;6176069;23;20976;-71
2021/05/09 12:48:15;;;;;;;2.33;2.13;;;28.60;98.00;;;;;;6202758;23;20551;-70
2021/05/09 12:50:57;;;;;;;2.80;2.60;;;28.70;96.60;;;;;;6172125;23;20563;-71
2021/05/09 12:53:36;;;;;;;1.90;1.80;;;28.80;95.60;;;;;;6194801;22;20598;-70
2021/05/09 12:56:14;;;;;;;2.23;2.10;;;28.90;96.70;;;;;;6199970;23;20578;-72
2021/05/09 12:59:25;;;;;;;2.37;2.23;;;28.90;96.90;;;;;;6203581;23;20652;-71